sensor_id;sensor_type;location;lat;lon;timestamp;P1;durP1;ratioP1;P2;durP2;ratioP2
15216;SDS011;7711;46.634;14.318;2024-01-27T00:00:20;20.50;;;11.73;;
15216;SDS011;7711;46.634;14.318;2024-01-27T00:02:47;16.93;;;10.70;;
15216;SDS011;7711;46.634;14.318;2024-01-27T00:05:14;18.30;;;10.90;;
15216;SDS011;7711;46.634;14.318;2024-01-27T00:07:41;18.03;;;10.83;;
15216;SDS011;7711;46.634;14.318;2024-01-27T00:10:08;17.57;;;10.73;;
15216;SDS011;7711;46.634;14.318;2024-01-27T00:12:37;17.67;;;11.20;;
15216;SDS011;7711;46.634;14.318;2024-01-27T00:15:06;23.07;;;12.63;;
15216;SDS011;7711;46.634;14.318;2024-01-27T00:17:33;21.43;;;12.10;;
15216;SDS011;7711;46.634;14.318;2024-01-27T00:20:01;20.90;;;12.80;;
15216;SDS011;7711;46.634;14.318;2024-01-27T00:22:28;21.50;;;12.90;;
15216;SDS011;7711;46.634;14.318;2024-01-27T00:24:55;21.03;;;12.63;;
15216;SDS011;7711;46.634;14.318;2024-01-27T00:27:22;19.17;;;12.60;;
15216;SDS011;7711;46.634;14.318;2024-01-27T00:29:50;25.83;;;13.40;;
15216;SDS011;7711;46.634;14.318;2024-01-27T00:32:17;22.07;;;13.13;;
15216;SDS011;7711;46.634;14.318;2024-01-27T00:34:44;22.67;;;13.20;;
15216;SDS011;7711;46.634;14.318;2024-01-27T00:37:11;20.40;;;12.73;;
15216;SDS011;7711;46.634;14.318;2024-01-27T00:39:38;21.70;;;12.60;;
15216;SDS011;7711;46.634;14.318;2024-01-27T00:42:05;20.37;;;12.43;;
15216;SDS011;7711;46.634;14.318;2024-01-27T00:44:32;21.17;;;13.67;;
15216;SDS011;7711;46.634;14.318;2024-01-27T00:47:00;24.93;;;13.50;;
15216;SDS011;7711;46.634;14.318;2024-01-27T00:49:27;21.40;;;13.03;;
15216;SDS011;7711;46.634;14.318;2024-01-27T00:51:54;23.10;;;13.53;;
15216;SDS011;7711;46.634;14.318;2024-01-27T00:54:21;22.80;;;13.70;;
15216;SDS011;7711;46.634;14.318;2024-01-27T00:56:50;23.30;;;14.03;;
15216;SDS011;7711;46.634;14.318;2024-01-27T00:59:17;23.70;;;14.03;;
15216;SDS011;7711;46.634;14.318;2024-01-27T01:01:43;23.07;;;13.40;;
15216;SDS011;7711;46.634;14.318;2024-01-27T01:04:11;23.47;;;13.83;;
15216;SDS011;7711;46.634;14.318;2024-01-27T01:06:38;20.23;;;13.93;;
15216;SDS011;7711;46.634;14.318;2024-01-27T01:09:05;19.93;;;13.87;;
15216;SDS011;7711;46.634;14.318;2024-01-27T01:11:33;22.07;;;14.00;;
15216;SDS011;7711;46.634;14.318;2024-01-27T01:14:01;19.20;;;12.77;;
15216;SDS011;7711;46.634;14.318;2024-01-27T01:16:28;20.20;;;13.20;;
15216;SDS011;7711;46.634;14.318;2024-01-27T01:18:54;20.40;;;13.17;;
15216;SDS011;7711;46.634;14.318;2024-01-27T01:21:23;22.07;;;13.70;;
15216;SDS011;7711;46.634;14.318;2024-01-27T01:23:50;20.73;;;13.20;;
15216;SDS011;7711;46.634;14.318;2024-01-27T01:26:17;22.37;;;13.03;;
15216;SDS011;7711;46.634;14.318;2024-01-27T01:28:44;21.63;;;13.30;;
15216;SDS011;7711;46.634;14.318;2024-01-27T01:31:11;21.97;;;13.23;;
15216;SDS011;7711;46.634;14.318;2024-01-27T01:33:38;21.87;;;14.33;;
15216;SDS011;7711;46.634;14.318;2024-01-27T01:36:05;17.70;;;12.20;;
15216;SDS011;7711;46.634;14.318;2024-01-27T01:38:33;20.33;;;12.77;;
15216;SDS011;7711;46.634;14.318;2024-01-27T01:41:00;18.20;;;12.60;;
15216;SDS011;7711;46.634;14.318;2024-01-27T01:43:27;18.93;;;12.33;;
15216;SDS011;7711;46.634;14.318;2024-01-27T01:45:54;19.87;;;12.87;;
15216;SDS011;7711;46.634;14.318;2024-01-27T01:48:22;19.13;;;12.73;;
15216;SDS011;7711;46.634;14.318;2024-01-27T01:50:49;19.10;;;12.73;;
15216;SDS011;7711;46.634;14.318;2024-01-27T01:53:16;18.10;;;12.30;;
15216;SDS011;7711;46.634;14.318;2024-01-27T01:55:45;17.23;;;12.23;;
15216;SDS011;7711;46.634;14.318;2024-01-27T01:58:12;19.60;;;12.60;;
15216;SDS011;7711;46.634;14.318;2024-01-27T02:00:39;25.70;;;13.43;;
15216;SDS011;7711;46.634;14.318;2024-01-27T02:03:09;19.33;;;12.77;;
15216;SDS011;7711;46.634;14.318;2024-01-27T02:05:37;19.37;;;12.50;;
15216;SDS011;7711;46.634;14.318;2024-01-27T02:08:04;18.53;;;12.40;;
15216;SDS011;7711;46.634;14.318;2024-01-27T02:10:31;17.60;;;11.70;;
15216;SDS011;7711;46.634;14.318;2024-01-27T02:13:03;20.77;;;12.53;;
15216;SDS011;7711;46.634;14.318;2024-01-27T02:15:31;20.63;;;12.67;;
15216;SDS011;7711;46.634;14.318;2024-01-27T02:17:58;24.57;;;14.70;;
15216;SDS011;7711;46.634;14.318;2024-01-27T02:20:25;22.33;;;13.33;;
15216;SDS011;7711;46.634;14.318;2024-01-27T02:22:52;23.43;;;14.27;;
15216;SDS011;7711;46.634;14.318;2024-01-27T02:25:20;18.87;;;13.13;;
15216;SDS011;7711;46.634;14.318;2024-01-27T02:27:47;22.53;;;12.70;;
15216;SDS011;7711;46.634;14.318;2024-01-27T02:30:14;19.80;;;13.30;;
15216;SDS011;7711;46.634;14.318;2024-01-27T02:32:41;21.37;;;13.20;;
15216;SDS011;7711;46.634;14.318;2024-01-27T02:35:08;22.63;;;13.47;;
15216;SDS011;7711;46.634;14.318;2024-01-27T02:37:35;20.73;;;12.67;;
15216;SDS011;7711;46.634;14.318;2024-01-27T02:40:02;18.20;;;12.43;;
15216;SDS011;7711;46.634;14.318;2024-01-27T02:42:32;20.23;;;12.53;;
15216;SDS011;7711;46.634;14.318;2024-01-27T02:44:59;20.07;;;12.73;;
15216;SDS011;7711;46.634;14.318;2024-01-27T02:47:26;20.00;;;12.63;;
15216;SDS011;7711;46.634;14.318;2024-01-27T02:49:53;18.37;;;12.63;;
15216;SDS011;7711;46.634;14.318;2024-01-27T02:52:20;21.23;;;13.07;;
15216;SDS011;7711;46.634;14.318;2024-01-27T02:54:47;17.63;;;12.40;;
15216;SDS011;7711;46.634;14.318;2024-01-27T02:57:14;22.07;;;12.53;;
15216;SDS011;7711;46.634;14.318;2024-01-27T02:59:45;19.67;;;13.40;;
15216;SDS011;7711;46.634;14.318;2024-01-27T03:02:12;23.63;;;13.50;;
15216;SDS011;7711;46.634;14.318;2024-01-27T03:04:39;21.00;;;12.80;;
15216;SDS011;7711;46.634;14.318;2024-01-27T03:07:06;21.47;;;13.17;;
15216;SDS011;7711;46.634;14.318;2024-01-27T03:09:33;18.03;;;12.47;;
15216;SDS011;7711;46.634;14.318;2024-01-27T03:12:00;21.30;;;13.20;;
15216;SDS011;7711;46.634;14.318;2024-01-27T03:14:27;21.50;;;12.57;;
15216;SDS011;7711;46.634;14.318;2024-01-27T03:16:56;18.10;;;11.67;;
15216;SDS011;7711;46.634;14.318;2024-01-27T03:19:23;19.80;;;11.67;;
15216;SDS011;7711;46.634;14.318;2024-01-27T03:21:49;17.13;;;11.70;;
15216;SDS011;7711;46.634;14.318;2024-01-27T03:24:16;16.93;;;11.57;;
15216;SDS011;7711;46.634;14.318;2024-01-27T03:26:43;16.87;;;11.70;;
15216;SDS011;7711;46.634;14.318;2024-01-27T03:29:10;17.10;;;11.23;;
15216;SDS011;7711;46.634;14.318;2024-01-27T03:31:37;16.37;;;11.37;;
15216;SDS011;7711;46.634;14.318;2024-01-27T03:34:06;16.77;;;11.43;;
15216;SDS011;7711;46.634;14.318;2024-01-27T03:36:33;23.60;;;12.97;;
15216;SDS011;7711;46.634;14.318;2024-01-27T03:39:00;25.00;;;13.60;;
15216;SDS011;7711;46.634;14.318;2024-01-27T03:41:28;23.23;;;14.17;;
15216;SDS011;7711;46.634;14.318;2024-01-27T03:43:55;26.27;;;15.00;;
15216;SDS011;7711;46.634;14.318;2024-01-27T03:46:22;20.47;;;12.20;;
15216;SDS011;7711;46.634;14.318;2024-01-27T03:48:49;18.60;;;11.13;;
15216;SDS011;7711;46.634;14.318;2024-01-27T03:51:17;18.10;;;11.17;;
15216;SDS011;7711;46.634;14.318;2024-01-27T03:53:44;16.83;;;10.70;;
15216;SDS011;7711;46.634;14.318;2024-01-27T03:56:11;19.23;;;12.10;;
15216;SDS011;7711;46.634;14.318;2024-01-27T03:58:38;21.90;;;12.03;;
15216;SDS011;7711;46.634;14.318;2024-01-27T04:01:05;17.70;;;11.27;;
15216;SDS011;7711;46.634;14.318;2024-01-27T04:03:32;17.27;;;10.90;;
15216;SDS011;7711;46.634;14.318;2024-01-27T04:05:59;18.00;;;10.77;;
15216;SDS011;7711;46.634;14.318;2024-01-27T04:08:28;19.17;;;10.60;;
15216;SDS011;7711;46.634;14.318;2024-01-27T04:10:56;16.93;;;10.47;;
15216;SDS011;7711;46.634;14.318;2024-01-27T04:13:23;15.10;;;9.97;;
15216;SDS011;7711;46.634;14.318;2024-01-27T04:15:50;15.70;;;9.80;;
15216;SDS011;7711;46.634;14.318;2024-01-27T04:18:19;16.23;;;10.40;;
15216;SDS011;7711;46.634;14.318;2024-01-27T04:20:45;16.23;;;9.83;;
15216;SDS011;7711;46.634;14.318;2024-01-27T04:23:13;15.33;;;9.50;;
15216;SDS011;7711;46.634;14.318;2024-01-27T04:25:43;17.90;;;8.97;;
15216;SDS011;7711;46.634;14.318;2024-01-27T04:28:10;14.77;;;9.97;;
15216;SDS011;7711;46.634;14.318;2024-01-27T04:30:37;14.37;;;9.17;;
15216;SDS011;7711;46.634;14.318;2024-01-27T04:33:05;13.50;;;9.13;;
15216;SDS011;7711;46.634;14.318;2024-01-27T04:35:32;13.33;;;9.53;;
15216;SDS011;7711;46.634;14.318;2024-01-27T04:37:59;14.53;;;9.40;;
15216;SDS011;7711;46.634;14.318;2024-01-27T04:40:26;15.33;;;9.43;;
15216;SDS011;7711;46.634;14.318;2024-01-27T04:42:55;14.00;;;10.33;;
15216;SDS011;7711;46.634;14.318;2024-01-27T04:45:21;17.47;;;9.60;;
15216;SDS011;7711;46.634;14.318;2024-01-27T04:47:48;14.93;;;9.77;;
15216;SDS011;7711;46.634;14.318;2024-01-27T04:50:15;13.90;;;9.33;;
15216;SDS011;7711;46.634;14.318;2024-01-27T04:52:42;13.17;;;8.73;;
15216;SDS011;7711;46.634;14.318;2024-01-27T04:55:08;15.33;;;9.50;;
15216;SDS011;7711;46.634;14.318;2024-01-27T04:57:35;15.73;;;9.47;;
15216;SDS011;7711;46.634;14.318;2024-01-27T05:00:04;15.70;;;10.03;;
15216;SDS011;7711;46.634;14.318;2024-01-27T05:02:37;15.50;;;9.50;;
15216;SDS011;7711;46.634;14.318;2024-01-27T05:05:05;13.63;;;9.97;;
15216;SDS011;7711;46.634;14.318;2024-01-27T05:07:32;15.13;;;9.20;;
15216;SDS011;7711;46.634;14.318;2024-01-27T05:09:59;13.93;;;9.93;;
15216;SDS011;7711;46.634;14.318;2024-01-27T05:12:26;14.57;;;9.83;;
15216;SDS011;7711;46.634;14.318;2024-01-27T05:14:53;17.50;;;9.73;;
15216;SDS011;7711;46.634;14.318;2024-01-27T05:17:22;14.30;;;9.50;;
15216;SDS011;7711;46.634;14.318;2024-01-27T05:19:49;15.17;;;10.10;;
15216;SDS011;7711;46.634;14.318;2024-01-27T05:22:16;17.87;;;10.17;;
15216;SDS011;7711;46.634;14.318;2024-01-27T05:24:43;16.67;;;10.27;;
15216;SDS011;7711;46.634;14.318;2024-01-27T05:27:10;16.00;;;9.87;;
15216;SDS011;7711;46.634;14.318;2024-01-27T05:29:37;13.77;;;9.13;;
15216;SDS011;7711;46.634;14.318;2024-01-27T05:32:05;14.97;;;10.00;;
15216;SDS011;7711;46.634;14.318;2024-01-27T05:34:33;13.63;;;9.30;;
15216;SDS011;7711;46.634;14.318;2024-01-27T05:37:00;14.27;;;9.67;;
15216;SDS011;7711;46.634;14.318;2024-01-27T05:39:27;15.57;;;9.73;;
15216;SDS011;7711;46.634;14.318;2024-01-27T05:41:55;16.83;;;10.53;;
15216;SDS011;7711;46.634;14.318;2024-01-27T05:44:22;14.70;;;9.40;;
15216;SDS011;7711;46.634;14.318;2024-01-27T05:46:49;17.37;;;11.27;;
15216;SDS011;7711;46.634;14.318;2024-01-27T05:49:16;20.20;;;10.47;;
15216;SDS011;7711;46.634;14.318;2024-01-27T05:51:44;18.00;;;11.47;;
15216;SDS011;7711;46.634;14.318;2024-01-27T05:54:11;16.30;;;11.20;;
15216;SDS011;7711;46.634;14.318;2024-01-27T05:56:41;26.43;;;14.83;;
15216;SDS011;7711;46.634;14.318;2024-01-27T05:59:08;24.73;;;14.43;;
15216;SDS011;7711;46.634;14.318;2024-01-27T06:01:35;23.30;;;14.80;;
15216;SDS011;7711;46.634;14.318;2024-01-27T06:04:02;21.73;;;13.77;;
15216;SDS011;7711;46.634;14.318;2024-01-27T06:06:29;23.40;;;14.43;;
15216;SDS011;7711;46.634;14.318;2024-01-27T06:08:57;28.97;;;17.60;;
15216;SDS011;7711;46.634;14.318;2024-01-27T06:11:24;28.53;;;16.33;;
15216;SDS011;7711;46.634;14.318;2024-01-27T06:13:52;27.47;;;16.33;;
15216;SDS011;7711;46.634;14.318;2024-01-27T06:16:19;31.50;;;18.23;;
15216;SDS011;7711;46.634;14.318;2024-01-27T06:18:46;29.20;;;16.50;;
15216;SDS011;7711;46.634;14.318;2024-01-27T06:21:13;29.97;;;16.67;;
15216;SDS011;7711;46.634;14.318;2024-01-27T06:23:40;28.03;;;17.03;;
15216;SDS011;7711;46.634;14.318;2024-01-27T06:26:08;30.13;;;17.60;;
15216;SDS011;7711;46.634;14.318;2024-01-27T06:28:35;25.20;;;16.60;;
15216;SDS011;7711;46.634;14.318;2024-01-27T06:31:03;26.70;;;16.27;;
15216;SDS011;7711;46.634;14.318;2024-01-27T06:33:30;31.97;;;16.83;;
15216;SDS011;7711;46.634;14.318;2024-01-27T06:35:57;27.13;;;15.67;;
15216;SDS011;7711;46.634;14.318;2024-01-27T06:38:24;25.77;;;15.70;;
15216;SDS011;7711;46.634;14.318;2024-01-27T06:40:52;26.17;;;16.33;;
15216;SDS011;7711;46.634;14.318;2024-01-27T06:43:21;25.47;;;15.63;;
15216;SDS011;7711;46.634;14.318;2024-01-27T06:45:48;26.70;;;15.83;;
15216;SDS011;7711;46.634;14.318;2024-01-27T06:48:15;26.13;;;15.13;;
15216;SDS011;7711;46.634;14.318;2024-01-27T06:50:42;22.67;;;14.10;;
15216;SDS011;7711;46.634;14.318;2024-01-27T06:53:09;23.87;;;14.53;;
15216;SDS011;7711;46.634;14.318;2024-01-27T06:55:36;23.60;;;14.60;;
15216;SDS011;7711;46.634;14.318;2024-01-27T06:58:03;21.73;;;13.40;;
15216;SDS011;7711;46.634;14.318;2024-01-27T07:00:31;18.97;;;13.50;;
15216;SDS011;7711;46.634;14.318;2024-01-27T07:02:58;25.77;;;14.90;;
15216;SDS011;7711;46.634;14.318;2024-01-27T07:05:25;24.57;;;16.40;;
15216;SDS011;7711;46.634;14.318;2024-01-27T07:07:52;27.57;;;16.03;;
15216;SDS011;7711;46.634;14.318;2024-01-27T07:10:19;22.40;;;14.93;;
15216;SDS011;7711;46.634;14.318;2024-01-27T07:12:46;23.57;;;14.20;;
15216;SDS011;7711;46.634;14.318;2024-01-27T07:15:13;23.73;;;14.97;;
15216;SDS011;7711;46.634;14.318;2024-01-27T07:17:41;24.07;;;14.70;;
15216;SDS011;7711;46.634;14.318;2024-01-27T07:20:08;26.70;;;16.00;;
15216;SDS011;7711;46.634;14.318;2024-01-27T07:22:36;23.20;;;15.80;;
15216;SDS011;7711;46.634;14.318;2024-01-27T07:25:03;23.80;;;16.60;;
15216;SDS011;7711;46.634;14.318;2024-01-27T07:27:32;26.87;;;15.93;;
15216;SDS011;7711;46.634;14.318;2024-01-27T07:29:59;23.17;;;16.07;;
15216;SDS011;7711;46.634;14.318;2024-01-27T07:32:26;28.43;;;16.17;;
15216;SDS011;7711;46.634;14.318;2024-01-27T07:34:54;26.10;;;16.23;;
15216;SDS011;7711;46.634;14.318;2024-01-27T07:37:21;26.83;;;17.43;;
15216;SDS011;7711;46.634;14.318;2024-01-27T07:39:48;28.17;;;16.53;;
15216;SDS011;7711;46.634;14.318;2024-01-27T07:42:15;29.27;;;17.90;;
15216;SDS011;7711;46.634;14.318;2024-01-27T07:44:42;30.00;;;15.67;;
15216;SDS011;7711;46.634;14.318;2024-01-27T07:47:09;26.20;;;16.33;;
15216;SDS011;7711;46.634;14.318;2024-01-27T07:49:35;25.00;;;16.17;;
15216;SDS011;7711;46.634;14.318;2024-01-27T07:52:04;22.13;;;14.70;;
15216;SDS011;7711;46.634;14.318;2024-01-27T07:54:31;22.67;;;15.33;;
15216;SDS011;7711;46.634;14.318;2024-01-27T07:57:04;25.07;;;15.33;;
15216;SDS011;7711;46.634;14.318;2024-01-27T07:59:31;21.70;;;14.87;;
15216;SDS011;7711;46.634;14.318;2024-01-27T08:01:58;24.87;;;17.70;;
15216;SDS011;7711;46.634;14.318;2024-01-27T08:04:25;24.67;;;16.40;;
15216;SDS011;7711;46.634;14.318;2024-01-27T08:06:52;24.40;;;15.97;;
15216;SDS011;7711;46.634;14.318;2024-01-27T08:09:21;23.40;;;14.17;;
15216;SDS011;7711;46.634;14.318;2024-01-27T08:11:48;23.30;;;15.40;;
15216;SDS011;7711;46.634;14.318;2024-01-27T08:14:17;19.27;;;14.50;;
15216;SDS011;7711;46.634;14.318;2024-01-27T08:16:45;97.00;;;44.00;;
15216;SDS011;7711;46.634;14.318;2024-01-27T08:19:12;30.93;;;19.80;;
15216;SDS011;7711;46.634;14.318;2024-01-27T08:21:45;27.87;;;22.43;;
15216;SDS011;7711;46.634;14.318;2024-01-27T08:24:12;29.67;;;20.40;;
15216;SDS011;7711;46.634;14.318;2024-01-27T08:26:40;24.97;;;17.93;;
15216;SDS011;7711;46.634;14.318;2024-01-27T08:29:08;26.00;;;18.43;;
15216;SDS011;7711;46.634;14.318;2024-01-27T08:31:35;42.30;;;24.27;;
15216;SDS011;7711;46.634;14.318;2024-01-27T08:34:03;34.20;;;21.00;;
15216;SDS011;7711;46.634;14.318;2024-01-27T08:36:30;25.57;;;17.63;;
15216;SDS011;7711;46.634;14.318;2024-01-27T08:38:57;22.80;;;15.63;;
15216;SDS011;7711;46.634;14.318;2024-01-27T08:41:24;102.60;;;69.50;;
15216;SDS011;7711;46.634;14.318;2024-01-27T08:43:52;56.90;;;39.63;;
15216;SDS011;7711;46.634;14.318;2024-01-27T08:46:19;32.30;;;22.27;;
15216;SDS011;7711;46.634;14.318;2024-01-27T08:48:48;25.73;;;15.13;;
15216;SDS011;7711;46.634;14.318;2024-01-27T08:51:15;20.93;;;14.07;;
15216;SDS011;7711;46.634;14.318;2024-01-27T08:53:43;20.77;;;14.73;;
15216;SDS011;7711;46.634;14.318;2024-01-27T08:56:13;20.73;;;15.70;;
15216;SDS011;7711;46.634;14.318;2024-01-27T08:58:41;22.87;;;15.43;;
15216;SDS011;7711;46.634;14.318;2024-01-27T09:01:09;20.40;;;14.83;;
15216;SDS011;7711;46.634;14.318;2024-01-27T09:03:38;21.73;;;13.67;;
15216;SDS011;7711;46.634;14.318;2024-01-27T09:06:05;18.00;;;13.23;;
15216;SDS011;7711;46.634;14.318;2024-01-27T09:08:33;21.03;;;13.40;;
15216;SDS011;7711;46.634;14.318;2024-01-27T09:11:01;20.33;;;13.53;;
15216;SDS011;7711;46.634;14.318;2024-01-27T09:13:28;19.80;;;13.57;;
15216;SDS011;7711;46.634;14.318;2024-01-27T09:15:55;20.30;;;13.10;;
15216;SDS011;7711;46.634;14.318;2024-01-27T09:18:24;19.03;;;13.67;;
15216;SDS011;7711;46.634;14.318;2024-01-27T09:20:51;21.63;;;13.77;;
15216;SDS011;7711;46.634;14.318;2024-01-27T09:23:18;26.60;;;14.73;;
15216;SDS011;7711;46.634;14.318;2024-01-27T09:25:45;21.20;;;13.80;;
15216;SDS011;7711;46.634;14.318;2024-01-27T09:28:12;18.77;;;12.23;;
15216;SDS011;7711;46.634;14.318;2024-01-27T09:30:41;15.87;;;10.20;;
15216;SDS011;7711;46.634;14.318;2024-01-27T09:33:08;14.17;;;10.87;;
15216;SDS011;7711;46.634;14.318;2024-01-27T09:35:36;17.17;;;10.50;;
15216;SDS011;7711;46.634;14.318;2024-01-27T09:38:03;14.40;;;9.90;;
15216;SDS011;7711;46.634;14.318;2024-01-27T09:40:33;13.67;;;9.50;;
15216;SDS011;7711;46.634;14.318;2024-01-27T09:43:00;15.83;;;10.00;;
15216;SDS011;7711;46.634;14.318;2024-01-27T09:45:27;12.50;;;9.43;;
15216;SDS011;7711;46.634;14.318;2024-01-27T09:47:54;12.23;;;9.43;;
15216;SDS011;7711;46.634;14.318;2024-01-27T09:50:24;13.13;;;9.87;;
15216;SDS011;7711;46.634;14.318;2024-01-27T09:52:53;14.40;;;9.67;;
15216;SDS011;7711;46.634;14.318;2024-01-27T09:55:20;14.40;;;10.33;;
15216;SDS011;7711;46.634;14.318;2024-01-27T09:57:47;14.23;;;10.23;;
15216;SDS011;7711;46.634;14.318;2024-01-27T10:00:15;15.73;;;10.10;;
15216;SDS011;7711;46.634;14.318;2024-01-27T10:02:42;12.27;;;9.20;;
15216;SDS011;7711;46.634;14.318;2024-01-27T10:05:12;13.60;;;9.07;;
15216;SDS011;7711;46.634;14.318;2024-01-27T10:07:40;13.20;;;7.90;;
15216;SDS011;7711;46.634;14.318;2024-01-27T10:10:08;14.87;;;8.10;;
15216;SDS011;7711;46.634;14.318;2024-01-27T10:12:37;12.80;;;8.50;;
15216;SDS011;7711;46.634;14.318;2024-01-27T10:15:06;10.20;;;7.67;;
15216;SDS011;7711;46.634;14.318;2024-01-27T10:17:44;10.33;;;6.77;;
15216;SDS011;7711;46.634;14.318;2024-01-27T10:20:11;9.83;;;6.93;;
15216;SDS011;7711;46.634;14.318;2024-01-27T10:22:40;9.13;;;7.07;;
15216;SDS011;7711;46.634;14.318;2024-01-27T10:25:09;10.67;;;7.43;;
15216;SDS011;7711;46.634;14.318;2024-01-27T10:27:36;10.80;;;8.00;;
15216;SDS011;7711;46.634;14.318;2024-01-27T10:30:04;12.03;;;8.13;;
15216;SDS011;7711;46.634;14.318;2024-01-27T10:32:32;11.00;;;7.83;;
15216;SDS011;7711;46.634;14.318;2024-01-27T10:35:02;11.07;;;8.27;;
15216;SDS011;7711;46.634;14.318;2024-01-27T10:37:29;9.43;;;7.67;;
15216;SDS011;7711;46.634;14.318;2024-01-27T10:40:00;11.20;;;7.70;;
15216;SDS011;7711;46.634;14.318;2024-01-27T10:42:29;9.57;;;6.93;;
15216;SDS011;7711;46.634;14.318;2024-01-27T10:44:57;12.07;;;7.37;;
15216;SDS011;7711;46.634;14.318;2024-01-27T10:47:26;10.53;;;7.70;;
15216;SDS011;7711;46.634;14.318;2024-01-27T10:49:55;9.57;;;6.47;;
15216;SDS011;7711;46.634;14.318;2024-01-27T10:52:23;10.33;;;7.43;;
15216;SDS011;7711;46.634;14.318;2024-01-27T10:54:55;10.77;;;6.77;;
15216;SDS011;7711;46.634;14.318;2024-01-27T10:57:26;8.33;;;6.20;;
15216;SDS011;7711;46.634;14.318;2024-01-27T10:59:54;9.53;;;7.00;;
15216;SDS011;7711;46.634;14.318;2024-01-27T11:02:22;8.80;;;6.03;;
15216;SDS011;7711;46.634;14.318;2024-01-27T11:04:50;7.27;;;5.83;;
15216;SDS011;7711;46.634;14.318;2024-01-27T11:07:19;6.73;;;4.60;;
15216;SDS011;7711;46.634;14.318;2024-01-27T11:09:48;9.17;;;5.63;;
15216;SDS011;7711;46.634;14.318;2024-01-27T11:12:17;6.83;;;4.80;;
15216;SDS011;7711;46.634;14.318;2024-01-27T11:14:46;7.80;;;4.77;;
15216;SDS011;7711;46.634;14.318;2024-01-27T11:17:15;7.13;;;5.00;;
15216;SDS011;7711;46.634;14.318;2024-01-27T11:19:42;8.03;;;5.30;;
15216;SDS011;7711;46.634;14.318;2024-01-27T11:22:23;12.20;;;5.90;;
15216;SDS011;7711;46.634;14.318;2024-01-27T11:24:52;13.93;;;8.13;;
15216;SDS011;7711;46.634;14.318;2024-01-27T11:27:19;9.87;;;5.70;;
15216;SDS011;7711;46.634;14.318;2024-01-27T11:29:54;6.07;;;4.27;;
15216;SDS011;7711;46.634;14.318;2024-01-27T11:32:22;7.30;;;4.90;;
15216;SDS011;7711;46.634;14.318;2024-01-27T11:34:49;6.80;;;4.90;;
15216;SDS011;7711;46.634;14.318;2024-01-27T11:37:17;7.43;;;4.67;;
15216;SDS011;7711;46.634;14.318;2024-01-27T11:39:49;8.23;;;4.97;;
15216;SDS011;7711;46.634;14.318;2024-01-27T11:42:16;8.80;;;5.10;;
15216;SDS011;7711;46.634;14.318;2024-01-27T11:44:43;7.30;;;4.60;;
15216;SDS011;7711;46.634;14.318;2024-01-27T11:47:14;5.83;;;4.60;;
15216;SDS011;7711;46.634;14.318;2024-01-27T11:49:43;6.57;;;4.80;;
15216;SDS011;7711;46.634;14.318;2024-01-27T11:52:17;6.63;;;4.37;;
15216;SDS011;7711;46.634;14.318;2024-01-27T11:54:44;6.13;;;4.33;;
15216;SDS011;7711;46.634;14.318;2024-01-27T11:57:11;5.43;;;4.40;;
15216;SDS011;7711;46.634;14.318;2024-01-27T11:59:38;5.90;;;4.43;;
15216;SDS011;7711;46.634;14.318;2024-01-27T12:02:05;11.13;;;4.67;;
15216;SDS011;7711;46.634;14.318;2024-01-27T12:04:32;9.53;;;4.70;;
15216;SDS011;7711;46.634;14.318;2024-01-27T12:07:01;9.50;;;4.27;;
15216;SDS011;7711;46.634;14.318;2024-01-27T12:09:29;6.17;;;4.00;;
15216;SDS011;7711;46.634;14.318;2024-01-27T12:11:56;5.63;;;3.93;;
15216;SDS011;7711;46.634;14.318;2024-01-27T12:14:23;6.07;;;4.63;;
15216;SDS011;7711;46.634;14.318;2024-01-27T12:16:50;6.03;;;4.27;;
15216;SDS011;7711;46.634;14.318;2024-01-27T12:19:18;8.20;;;4.93;;
15216;SDS011;7711;46.634;14.318;2024-01-27T12:21:48;5.20;;;4.17;;
15216;SDS011;7711;46.634;14.318;2024-01-27T12:24:17;8.23;;;4.00;;
15216;SDS011;7711;46.634;14.318;2024-01-27T12:26:44;6.30;;;3.83;;
15216;SDS011;7711;46.634;14.318;2024-01-27T12:29:12;5.60;;;3.10;;
15216;SDS011;7711;46.634;14.318;2024-01-27T12:31:38;5.47;;;3.50;;
15216;SDS011;7711;46.634;14.318;2024-01-27T12:34:05;4.97;;;3.47;;
15216;SDS011;7711;46.634;14.318;2024-01-27T12:36:39;10.67;;;3.60;;
15216;SDS011;7711;46.634;14.318;2024-01-27T12:39:07;5.80;;;3.80;;
15216;SDS011;7711;46.634;14.318;2024-01-27T12:41:36;4.23;;;3.50;;
15216;SDS011;7711;46.634;14.318;2024-01-27T12:44:05;6.50;;;3.10;;
15216;SDS011;7711;46.634;14.318;2024-01-27T12:46:32;7.17;;;3.57;;
15216;SDS011;7711;46.634;14.318;2024-01-27T12:48:59;4.77;;;2.83;;
15216;SDS011;7711;46.634;14.318;2024-01-27T12:51:26;4.13;;;2.77;;
15216;SDS011;7711;46.634;14.318;2024-01-27T12:53:53;3.80;;;2.80;;
15216;SDS011;7711;46.634;14.318;2024-01-27T12:56:20;2.40;;;2.20;;
15216;SDS011;7711;46.634;14.318;2024-01-27T12:58:48;5.30;;;2.50;;
15216;SDS011;7711;46.634;14.318;2024-01-27T13:01:16;4.00;;;2.87;;
15216;SDS011;7711;46.634;14.318;2024-01-27T13:03:43;5.13;;;2.50;;
15216;SDS011;7711;46.634;14.318;2024-01-27T13:06:09;3.73;;;2.53;;
15216;SDS011;7711;46.634;14.318;2024-01-27T13:08:37;3.23;;;2.63;;
15216;SDS011;7711;46.634;14.318;2024-01-27T13:11:04;2.80;;;2.50;;
15216;SDS011;7711;46.634;14.318;2024-01-27T13:13:31;4.40;;;2.20;;
15216;SDS011;7711;46.634;14.318;2024-01-27T13:16:00;5.20;;;2.70;;
15216;SDS011;7711;46.634;14.318;2024-01-27T13:18:27;4.43;;;2.70;;
15216;SDS011;7711;46.634;14.318;2024-01-27T13:20:53;2.50;;;2.20;;
15216;SDS011;7711;46.634;14.318;2024-01-27T13:23:20;4.13;;;2.60;;
15216;SDS011;7711;46.634;14.318;2024-01-27T13:25:47;4.88;;;1.58;;
15216;SDS011;7711;46.634;14.318;2024-01-27T13:28:15;2.58;;;1.90;;
15216;SDS011;7711;46.634;14.318;2024-01-27T13:30:42;2.67;;;1.33;;
15216;SDS011;7711;46.634;14.318;2024-01-27T13:33:09;1.02;;;1.02;;
15216;SDS011;7711;46.634;14.318;2024-01-27T13:35:37;1.48;;;1.33;;
15216;SDS011;7711;46.634;14.318;2024-01-27T13:38:07;2.58;;;1.10;;
15216;SDS011;7711;46.634;14.318;2024-01-27T13:40:34;1.10;;;1.08;;
15216;SDS011;7711;46.634;14.318;2024-01-27T13:43:01;1.45;;;1.35;;
15216;SDS011;7711;46.634;14.318;2024-01-27T13:45:28;2.72;;;1.50;;
15216;SDS011;7711;46.634;14.318;2024-01-27T13:47:55;1.08;;;1.08;;
15216;SDS011;7711;46.634;14.318;2024-01-27T13:50:24;1.45;;;1.20;;
15216;SDS011;7711;46.634;14.318;2024-01-27T13:52:51;1.33;;;1.10;;
15216;SDS011;7711;46.634;14.318;2024-01-27T13:55:18;3.28;;;1.58;;
15216;SDS011;7711;46.634;14.318;2024-01-27T13:57:47;2.40;;;1.30;;
15216;SDS011;7711;46.634;14.318;2024-01-27T14:00:14;2.88;;;1.60;;
15216;SDS011;7711;46.634;14.318;2024-01-27T14:02:42;2.58;;;1.58;;
15216;SDS011;7711;46.634;14.318;2024-01-27T14:05:09;1.30;;;1.20;;
15216;SDS011;7711;46.634;14.318;2024-01-27T14:07:37;1.25;;;1.15;;
15216;SDS011;7711;46.634;14.318;2024-01-27T14:10:04;1.40;;;1.23;;
15216;SDS011;7711;46.634;14.318;2024-01-27T14:12:31;2.38;;;1.15;;
15216;SDS011;7711;46.634;14.318;2024-01-27T14:15:02;1.55;;;0.80;;
15216;SDS011;7711;46.634;14.318;2024-01-27T14:17:31;1.42;;;1.25;;
15216;SDS011;7711;46.634;14.318;2024-01-27T14:19:59;2.53;;;1.67;;
15216;SDS011;7711;46.634;14.318;2024-01-27T14:22:26;3.33;;;1.23;;
15216;SDS011;7711;46.634;14.318;2024-01-27T14:24:55;1.30;;;1.20;;
15216;SDS011;7711;46.634;14.318;2024-01-27T14:27:22;0.95;;;0.80;;
15216;SDS011;7711;46.634;14.318;2024-01-27T14:29:51;3.55;;;1.15;;
15216;SDS011;7711;46.634;14.318;2024-01-27T14:32:19;2.03;;;1.20;;